sensor_id;sensor_type;location;lat;lon;timestamp;P1;durP1;ratioP1;P2;durP2;ratioP2
58446;SDS011;44240;51.840;7.258;2022-08-19T00:01:51;6.95;;;5.60;;
58446;SDS011;44240;51.840;7.258;2022-08-19T00:04:19;9.35;;;5.68;;
58446;SDS011;44240;51.840;7.258;2022-08-19T00:06:46;6.90;;;5.50;;
58446;SDS011;44240;51.840;7.258;2022-08-19T00:09:13;6.28;;;5.18;;
58446;SDS011;44240;51.840;7.258;2022-08-19T00:11:41;6.45;;;5.22;;
58446;SDS011;44240;51.840;7.258;2022-08-19T00:14:09;5.88;;;5.28;;
58446;SDS011;44240;51.840;7.258;2022-08-19T00:16:37;7.03;;;5.70;;
58446;SDS011;44240;51.840;7.258;2022-08-19T00:19:04;7.03;;;5.40;;
58446;SDS011;44240;51.840;7.258;2022-08-19T00:21:30;6.55;;;5.50;;
58446;SDS011;44240;51.840;7.258;2022-08-19T00:23:56;8.77;;;4.95;;
58446;SDS011;44240;51.840;7.258;2022-08-19T00:26:23;8.77;;;5.25;;
58446;SDS011;44240;51.840;7.258;2022-08-19T00:28:50;5.50;;;4.82;;
58446;SDS011;44240;51.840;7.258;2022-08-19T00:31:15;6.85;;;5.20;;
58446;SDS011;44240;51.840;7.258;2022-08-19T00:33:41;7.30;;;5.28;;
58446;SDS011;44240;51.840;7.258;2022-08-19T00:36:08;9.57;;;6.43;;
58446;SDS011;44240;51.840;7.258;2022-08-19T00:38:35;8.68;;;6.97;;
58446;SDS011;44240;51.840;7.258;2022-08-19T00:41:01;9.60;;;6.95;;
58446;SDS011;44240;51.840;7.258;2022-08-19T00:43:27;13.73;;;7.25;;
58446;SDS011;44240;51.840;7.258;2022-08-19T00:45:53;11.35;;;7.28;;
58446;SDS011;44240;51.840;7.258;2022-08-19T00:48:20;8.52;;;6.03;;
58446;SDS011;44240;51.840;7.258;2022-08-19T00:50:46;11.43;;;7.07;;
58446;SDS011;44240;51.840;7.258;2022-08-19T00:53:14;9.40;;;7.15;;
58446;SDS011;44240;51.840;7.258;2022-08-19T00:55:47;8.30;;;6.18;;
58446;SDS011;44240;51.840;7.258;2022-08-19T00:58:15;7.90;;;7.10;;
58446;SDS011;44240;51.840;7.258;2022-08-19T01:00:44;7.57;;;6.68;;
58446;SDS011;44240;51.840;7.258;2022-08-19T01:03:12;8.88;;;6.68;;
58446;SDS011;44240;51.840;7.258;2022-08-19T01:05:41;7.55;;;6.20;;
58446;SDS011;44240;51.840;7.258;2022-08-19T01:08:08;9.02;;;6.97;;
58446;SDS011;44240;51.840;7.258;2022-08-19T01:10:36;7.55;;;6.40;;
58446;SDS011;44240;51.840;7.258;2022-08-19T01:13:05;8.75;;;6.28;;
58446;SDS011;44240;51.840;7.258;2022-08-19T01:15:38;9.68;;;7.18;;
58446;SDS011;44240;51.840;7.258;2022-08-19T01:18:08;9.77;;;7.15;;
58446;SDS011;44240;51.840;7.258;2022-08-19T01:20:36;6.43;;;5.75;;
58446;SDS011;44240;51.840;7.258;2022-08-19T01:23:02;8.70;;;6.05;;
58446;SDS011;44240;51.840;7.258;2022-08-19T01:25:31;6.05;;;5.45;;
58446;SDS011;44240;51.840;7.258;2022-08-19T01:28:00;11.00;;;6.60;;
58446;SDS011;44240;51.840;7.258;2022-08-19T01:30:31;6.78;;;5.53;;
58446;SDS011;44240;51.840;7.258;2022-08-19T01:32:58;8.98;;;5.50;;
58446;SDS011;44240;51.840;7.258;2022-08-19T01:35:25;7.18;;;6.22;;
58446;SDS011;44240;51.840;7.258;2022-08-19T01:38:01;8.32;;;5.85;;
58446;SDS011;44240;51.840;7.258;2022-08-19T01:40:32;9.32;;;5.85;;
58446;SDS011;44240;51.840;7.258;2022-08-19T01:42:59;6.78;;;5.63;;
58446;SDS011;44240;51.840;7.258;2022-08-19T01:45:26;8.02;;;6.00;;
58446;SDS011;44240;51.840;7.258;2022-08-19T01:47:53;11.20;;;7.15;;
58446;SDS011;44240;51.840;7.258;2022-08-19T01:50:19;8.95;;;6.72;;
58446;SDS011;44240;51.840;7.258;2022-08-19T01:52:45;7.28;;;6.57;;
58446;SDS011;44240;51.840;7.258;2022-08-19T01:55:13;9.10;;;7.25;;
58446;SDS011;44240;51.840;7.258;2022-08-19T01:57:41;10.07;;;7.78;;
58446;SDS011;44240;51.840;7.258;2022-08-19T02:00:11;13.13;;;7.72;;
58446;SDS011;44240;51.840;7.258;2022-08-19T02:02:40;12.32;;;8.70;;
58446;SDS011;44240;51.840;7.258;2022-08-19T02:05:06;12.88;;;8.65;;
58446;SDS011;44240;51.840;7.258;2022-08-19T02:07:33;15.23;;;9.75;;
58446;SDS011;44240;51.840;7.258;2022-08-19T02:10:04;16.88;;;10.20;;
58446;SDS011;44240;51.840;7.258;2022-08-19T02:12:32;11.52;;;8.23;;
58446;SDS011;44240;51.840;7.258;2022-08-19T02:14:58;11.52;;;8.90;;
58446;SDS011;44240;51.840;7.258;2022-08-19T02:17:24;13.80;;;10.15;;
58446;SDS011;44240;51.840;7.258;2022-08-19T02:19:50;17.25;;;10.13;;
58446;SDS011;44240;51.840;7.258;2022-08-19T02:22:15;12.38;;;9.10;;
58446;SDS011;44240;51.840;7.258;2022-08-19T02:24:41;12.20;;;8.15;;
58446;SDS011;44240;51.840;7.258;2022-08-19T02:27:07;12.98;;;8.48;;
58446;SDS011;44240;51.840;7.258;2022-08-19T02:29:32;15.55;;;9.23;;
58446;SDS011;44240;51.840;7.258;2022-08-19T02:31:58;15.60;;;10.77;;
58446;SDS011;44240;51.840;7.258;2022-08-19T02:34:24;16.23;;;11.77;;
58446;SDS011;44240;51.840;7.258;2022-08-19T02:36:50;12.90;;;9.63;;
58446;SDS011;44240;51.840;7.258;2022-08-19T02:39:16;13.65;;;9.23;;
58446;SDS011;44240;51.840;7.258;2022-08-19T02:41:42;13.68;;;10.30;;
58446;SDS011;44240;51.840;7.258;2022-08-19T02:44:07;17.85;;;9.43;;
58446;SDS011;44240;51.840;7.258;2022-08-19T02:46:33;13.20;;;8.75;;
58446;SDS011;44240;51.840;7.258;2022-08-19T02:49:03;10.32;;;8.20;;
58446;SDS011;44240;51.840;7.258;2022-08-19T02:51:34;12.93;;;9.23;;
58446;SDS011;44240;51.840;7.258;2022-08-19T02:54:02;11.65;;;8.55;;
58446;SDS011;44240;51.840;7.258;2022-08-19T02:56:29;11.40;;;8.65;;
58446;SDS011;44240;51.840;7.258;2022-08-19T02:58:56;13.25;;;10.32;;
58446;SDS011;44240;51.840;7.258;2022-08-19T03:01:25;14.20;;;10.15;;
58446;SDS011;44240;51.840;7.258;2022-08-19T03:03:53;12.82;;;9.98;;
58446;SDS011;44240;51.840;7.258;2022-08-19T03:06:19;13.05;;;8.27;;
58446;SDS011;44240;51.840;7.258;2022-08-19T03:08:45;14.73;;;9.43;;
58446;SDS011;44240;51.840;7.258;2022-08-19T03:11:13;12.60;;;10.52;;
58446;SDS011;44240;51.840;7.258;2022-08-19T03:13:40;11.95;;;8.32;;
58446;SDS011;44240;51.840;7.258;2022-08-19T03:16:08;10.65;;;8.13;;
58446;SDS011;44240;51.840;7.258;2022-08-19T03:18:33;11.02;;;8.00;;
58446;SDS011;44240;51.840;7.258;2022-08-19T03:20:59;14.82;;;9.40;;
58446;SDS011;44240;51.840;7.258;2022-08-19T03:23:25;13.15;;;8.25;;
58446;SDS011;44240;51.840;7.258;2022-08-19T03:25:51;13.68;;;8.50;;
58446;SDS011;44240;51.840;7.258;2022-08-19T03:28:18;11.48;;;8.68;;
58446;SDS011;44240;51.840;7.258;2022-08-19T03:30:54;14.75;;;9.13;;
58446;SDS011;44240;51.840;7.258;2022-08-19T03:33:25;10.82;;;8.15;;
58446;SDS011;44240;51.840;7.258;2022-08-19T03:38:33;13.23;;;8.88;;
58446;SDS011;44240;51.840;7.258;2022-08-19T03:41:04;14.25;;;10.05;;
58446;SDS011;44240;51.840;7.258;2022-08-19T03:43:32;14.23;;;9.85;;
58446;SDS011;44240;51.840;7.258;2022-08-19T03:46:03;16.38;;;10.88;;
58446;SDS011;44240;51.840;7.258;2022-08-19T03:48:31;13.43;;;9.88;;
58446;SDS011;44240;51.840;7.258;2022-08-19T03:50:58;12.80;;;8.23;;
58446;SDS011;44240;51.840;7.258;2022-08-19T03:53:24;11.85;;;8.70;;
58446;SDS011;44240;51.840;7.258;2022-08-19T03:55:51;14.88;;;9.45;;
58446;SDS011;44240;51.840;7.258;2022-08-19T03:58:18;14.52;;;9.93;;
58446;SDS011;44240;51.840;7.258;2022-08-19T04:00:44;11.93;;;8.73;;
58446;SDS011;44240;51.840;7.258;2022-08-19T04:03:10;12.43;;;8.70;;
58446;SDS011;44240;51.840;7.258;2022-08-19T04:05:35;16.65;;;10.68;;
58446;SDS011;44240;51.840;7.258;2022-08-19T04:08:03;13.85;;;10.43;;
58446;SDS011;44240;51.840;7.258;2022-08-19T04:10:30;16.80;;;10.45;;
58446;SDS011;44240;51.840;7.258;2022-08-19T04:13:03;13.68;;;9.90;;
58446;SDS011;44240;51.840;7.258;2022-08-19T04:15:30;13.20;;;9.10;;
58446;SDS011;44240;51.840;7.258;2022-08-19T04:18:00;15.95;;;10.32;;
58446;SDS011;44240;51.840;7.258;2022-08-19T04:20:26;15.07;;;10.18;;
58446;SDS011;44240;51.840;7.258;2022-08-19T04:22:51;15.88;;;10.60;;
58446;SDS011;44240;51.840;7.258;2022-08-19T04:25:17;14.70;;;10.65;;
58446;SDS011;44240;51.840;7.258;2022-08-19T04:27:42;16.77;;;10.57;;
58446;SDS011;44240;51.840;7.258;2022-08-19T04:30:11;18.30;;;11.40;;
58446;SDS011;44240;51.840;7.258;2022-08-19T04:32:37;16.20;;;10.48;;
58446;SDS011;44240;51.840;7.258;2022-08-19T04:35:03;15.80;;;10.48;;
58446;SDS011;44240;51.840;7.258;2022-08-19T04:37:29;13.27;;;9.95;;
58446;SDS011;44240;51.840;7.258;2022-08-19T04:39:57;13.98;;;10.00;;
58446;SDS011;44240;51.840;7.258;2022-08-19T04:42:42;13.63;;;9.80;;
58446;SDS011;44240;51.840;7.258;2022-08-19T04:45:08;16.13;;;10.73;;
58446;SDS011;44240;51.840;7.258;2022-08-19T04:47:36;17.90;;;10.38;;
58446;SDS011;44240;51.840;7.258;2022-08-19T04:50:03;15.43;;;10.77;;
58446;SDS011;44240;51.840;7.258;2022-08-19T04:52:29;14.98;;;10.82;;
58446;SDS011;44240;51.840;7.258;2022-08-19T04:54:56;16.70;;;11.48;;
58446;SDS011;44240;51.840;7.258;2022-08-19T04:57:22;18.08;;;12.20;;
58446;SDS011;44240;51.840;7.258;2022-08-19T04:59:48;18.40;;;12.40;;
58446;SDS011;44240;51.840;7.258;2022-08-19T05:02:14;17.08;;;12.48;;
58446;SDS011;44240;51.840;7.258;2022-08-19T05:04:40;16.52;;;11.52;;
58446;SDS011;44240;51.840;7.258;2022-08-19T05:07:06;15.70;;;10.77;;
58446;SDS011;44240;51.840;7.258;2022-08-19T05:09:32;22.10;;;13.30;;
58446;SDS011;44240;51.840;7.258;2022-08-19T05:11:59;18.70;;;12.27;;
58446;SDS011;44240;51.840;7.258;2022-08-19T05:14:25;17.25;;;11.30;;
58446;SDS011;44240;51.840;7.258;2022-08-19T05:16:50;19.67;;;13.38;;
58446;SDS011;44240;51.840;7.258;2022-08-19T05:19:16;15.25;;;10.32;;
58446;SDS011;44240;51.840;7.258;2022-08-19T05:22:00;15.90;;;10.63;;
58446;SDS011;44240;51.840;7.258;2022-08-19T05:24:44;16.27;;;12.15;;
58446;SDS011;44240;51.840;7.258;2022-08-19T05:27:10;17.35;;;11.32;;
58446;SDS011;44240;51.840;7.258;2022-08-19T05:29:36;20.50;;;12.25;;
58446;SDS011;44240;51.840;7.258;2022-08-19T05:32:02;22.58;;;13.93;;
58446;SDS011;44240;51.840;7.258;2022-08-19T05:34:30;18.80;;;12.32;;
58446;SDS011;44240;51.840;7.258;2022-08-19T05:36:58;19.23;;;12.20;;
58446;SDS011;44240;51.840;7.258;2022-08-19T05:39:25;19.17;;;11.60;;
58446;SDS011;44240;51.840;7.258;2022-08-19T05:41:57;18.33;;;12.40;;
58446;SDS011;44240;51.840;7.258;2022-08-19T05:44:25;23.65;;;13.20;;
58446;SDS011;44240;51.840;7.258;2022-08-19T05:46:52;20.98;;;14.55;;
58446;SDS011;44240;51.840;7.258;2022-08-19T05:49:18;21.30;;;13.85;;
58446;SDS011;44240;51.840;7.258;2022-08-19T05:51:46;18.58;;;13.02;;
58446;SDS011;44240;51.840;7.258;2022-08-19T05:54:11;21.48;;;14.50;;
58446;SDS011;44240;51.840;7.258;2022-08-19T05:56:38;20.75;;;14.35;;
58446;SDS011;44240;51.840;7.258;2022-08-19T05:59:08;22.23;;;14.43;;
58446;SDS011;44240;51.840;7.258;2022-08-19T06:01:36;23.35;;;15.50;;
58446;SDS011;44240;51.840;7.258;2022-08-19T06:04:03;20.45;;;14.27;;
58446;SDS011;44240;51.840;7.258;2022-08-19T06:06:29;23.42;;;14.07;;
58446;SDS011;44240;51.840;7.258;2022-08-19T06:08:55;19.70;;;13.65;;
58446;SDS011;44240;51.840;7.258;2022-08-19T06:11:22;26.52;;;16.60;;
58446;SDS011;44240;51.840;7.258;2022-08-19T06:13:52;27.48;;;17.85;;
58446;SDS011;44240;51.840;7.258;2022-08-19T06:16:19;27.95;;;17.65;;
58446;SDS011;44240;51.840;7.258;2022-08-19T06:18:47;26.58;;;15.95;;
58446;SDS011;44240;51.840;7.258;2022-08-19T06:21:13;21.77;;;15.07;;
58446;SDS011;44240;51.840;7.258;2022-08-19T06:23:39;25.92;;;16.08;;
58446;SDS011;44240;51.840;7.258;2022-08-19T06:26:05;25.45;;;16.05;;
58446;SDS011;44240;51.840;7.258;2022-08-19T06:28:31;24.50;;;16.27;;
58446;SDS011;44240;51.840;7.258;2022-08-19T06:30:57;22.88;;;16.98;;
58446;SDS011;44240;51.840;7.258;2022-08-19T06:33:23;26.15;;;16.70;;
58446;SDS011;44240;51.840;7.258;2022-08-19T06:35:49;24.88;;;16.48;;
58446;SDS011;44240;51.840;7.258;2022-08-19T06:38:14;26.27;;;16.73;;
58446;SDS011;44240;51.840;7.258;2022-08-19T06:40:40;31.30;;;16.88;;
58446;SDS011;44240;51.840;7.258;2022-08-19T06:43:05;27.55;;;17.40;;
58446;SDS011;44240;51.840;7.258;2022-08-19T06:45:31;24.75;;;16.38;;
58446;SDS011;44240;51.840;7.258;2022-08-19T06:47:56;21.33;;;16.25;;
58446;SDS011;44240;51.840;7.258;2022-08-19T06:50:23;22.85;;;15.75;;
58446;SDS011;44240;51.840;7.258;2022-08-19T06:52:48;24.05;;;16.38;;
58446;SDS011;44240;51.840;7.258;2022-08-19T06:55:14;27.73;;;17.48;;
58446;SDS011;44240;51.840;7.258;2022-08-19T06:57:40;31.02;;;18.20;;
58446;SDS011;44240;51.840;7.258;2022-08-19T07:00:07;22.98;;;16.20;;
58446;SDS011;44240;51.840;7.258;2022-08-19T07:02:36;24.27;;;16.00;;
58446;SDS011;44240;51.840;7.258;2022-08-19T07:05:02;26.80;;;16.73;;
58446;SDS011;44240;51.840;7.258;2022-08-19T07:07:30;27.33;;;16.17;;
58446;SDS011;44240;51.840;7.258;2022-08-19T07:09:56;23.85;;;16.05;;
58446;SDS011;44240;51.840;7.258;2022-08-19T07:12:21;23.23;;;16.73;;
58446;SDS011;44240;51.840;7.258;2022-08-19T07:14:47;23.38;;;18.00;;
58446;SDS011;44240;51.840;7.258;2022-08-19T07:17:14;24.83;;;16.65;;
58446;SDS011;44240;51.840;7.258;2022-08-19T07:19:40;25.10;;;17.00;;
58446;SDS011;44240;51.840;7.258;2022-08-19T07:22:07;21.85;;;15.00;;
58446;SDS011;44240;51.840;7.258;2022-08-19T07:24:34;25.17;;;17.13;;
58446;SDS011;44240;51.840;7.258;2022-08-19T07:27:01;21.88;;;15.13;;
58446;SDS011;44240;51.840;7.258;2022-08-19T07:29:30;20.27;;;14.30;;
58446;SDS011;44240;51.840;7.258;2022-08-19T07:31:58;20.27;;;15.00;;
58446;SDS011;44240;51.840;7.258;2022-08-19T07:34:24;22.48;;;15.27;;
58446;SDS011;44240;51.840;7.258;2022-08-19T07:36:52;24.17;;;15.15;;
58446;SDS011;44240;51.840;7.258;2022-08-19T07:39:20;19.98;;;13.88;;
58446;SDS011;44240;51.840;7.258;2022-08-19T07:41:48;20.80;;;14.20;;
58446;SDS011;44240;51.840;7.258;2022-08-19T07:44:15;22.77;;;14.00;;
58446;SDS011;44240;51.840;7.258;2022-08-19T07:46:42;18.92;;;13.27;;
58446;SDS011;44240;51.840;7.258;2022-08-19T07:49:11;17.98;;;12.75;;
58446;SDS011;44240;51.840;7.258;2022-08-19T07:51:42;18.45;;;12.43;;
58446;SDS011;44240;51.840;7.258;2022-08-19T07:54:08;19.92;;;14.15;;
58446;SDS011;44240;51.840;7.258;2022-08-19T07:56:34;16.73;;;12.95;;
58446;SDS011;44240;51.840;7.258;2022-08-19T07:58:59;16.98;;;12.73;;
58446;SDS011;44240;51.840;7.258;2022-08-19T08:01:25;18.00;;;12.88;;
58446;SDS011;44240;51.840;7.258;2022-08-19T08:03:53;15.57;;;11.75;;
58446;SDS011;44240;51.840;7.258;2022-08-19T08:06:39;15.60;;;12.27;;
58446;SDS011;44240;51.840;7.258;2022-08-19T08:09:24;12.15;;;10.48;;
58446;SDS011;44240;51.840;7.258;2022-08-19T08:11:54;16.52;;;10.80;;
58446;SDS011;44240;51.840;7.258;2022-08-19T08:14:23;14.68;;;10.20;;
58446;SDS011;44240;51.840;7.258;2022-08-19T08:16:51;13.23;;;10.23;;
58446;SDS011;44240;51.840;7.258;2022-08-19T08:19:21;14.77;;;11.02;;
58446;SDS011;44240;51.840;7.258;2022-08-19T08:21:48;12.63;;;9.55;;
58446;SDS011;44240;51.840;7.258;2022-08-19T08:24:15;12.48;;;9.73;;
58446;SDS011;44240;51.840;7.258;2022-08-19T08:26:41;12.95;;;10.10;;
58446;SDS011;44240;51.840;7.258;2022-08-19T08:29:08;12.05;;;9.35;;
58446;SDS011;44240;51.840;7.258;2022-08-19T08:31:38;13.88;;;9.63;;
58446;SDS011;44240;51.840;7.258;2022-08-19T08:34:05;11.27;;;8.57;;
58446;SDS011;44240;51.840;7.258;2022-08-19T08:36:30;13.15;;;9.60;;
58446;SDS011;44240;51.840;7.258;2022-08-19T08:38:59;10.95;;;9.30;;
58446;SDS011;44240;51.840;7.258;2022-08-19T08:41:28;12.85;;;9.48;;
58446;SDS011;44240;51.840;7.258;2022-08-19T08:44:15;10.27;;;8.18;;
58446;SDS011;44240;51.840;7.258;2022-08-19T08:52:03;9.90;;;7.65;;
58446;SDS011;44240;51.840;7.258;2022-08-19T08:54:40;7.78;;;5.97;;
58446;SDS011;44240;51.840;7.258;2022-08-19T08:57:19;9.95;;;6.88;;
58446;SDS011;44240;51.840;7.258;2022-08-19T08:59:52;12.02;;;8.70;;
58446;SDS011;44240;51.840;7.258;2022-08-19T09:02:21;11.93;;;8.15;;
58446;SDS011;44240;51.840;7.258;2022-08-19T09:04:46;8.40;;;7.45;;
58446;SDS011;44240;51.840;7.258;2022-08-19T09:07:26;7.53;;;6.38;;
58446;SDS011;44240;51.840;7.258;2022-08-19T09:10:08;8.85;;;6.47;;
58446;SDS011;44240;51.840;7.258;2022-08-19T09:12:47;8.57;;;7.63;;
58446;SDS011;44240;51.840;7.258;2022-08-19T09:15:25;7.15;;;6.45;;
58446;SDS011;44240;51.840;7.258;2022-08-19T09:18:00;13.50;;;9.88;;
58446;SDS011;44240;51.840;7.258;2022-08-19T09:20:27;14.98;;;9.07;;
58446;SDS011;44240;51.840;7.258;2022-08-19T09:22:53;15.52;;;9.07;;
58446;SDS011;44240;51.840;7.258;2022-08-19T09:25:19;11.40;;;9.75;;
58446;SDS011;44240;51.840;7.258;2022-08-19T09:27:48;15.75;;;11.23;;
58446;SDS011;44240;51.840;7.258;2022-08-19T09:30:16;12.75;;;9.75;;
58446;SDS011;44240;51.840;7.258;2022-08-19T09:32:46;11.32;;;9.40;;
58446;SDS011;44240;51.840;7.258;2022-08-19T09:35:13;12.68;;;8.75;;
58446;SDS011;44240;51.840;7.258;2022-08-19T09:37:40;9.32;;;8.40;;
58446;SDS011;44240;51.840;7.258;2022-08-19T09:40:06;10.57;;;7.95;;
58446;SDS011;44240;51.840;7.258;2022-08-19T09:42:32;10.02;;;8.63;;
58446;SDS011;44240;51.840;7.258;2022-08-19T09:44:58;10.90;;;9.30;;
58446;SDS011;44240;51.840;7.258;2022-08-19T09:47:24;9.95;;;8.45;;
58446;SDS011;44240;51.840;7.258;2022-08-19T09:49:50;12.07;;;9.77;;
58446;SDS011;44240;51.840;7.258;2022-08-19T09:52:15;11.30;;;8.32;;
58446;SDS011;44240;51.840;7.258;2022-08-19T09:54:41;8.98;;;7.45;;
58446;SDS011;44240;51.840;7.258;2022-08-19T09:57:07;11.27;;;9.32;;
58446;SDS011;44240;51.840;7.258;2022-08-19T09:59:32;10.75;;;9.00;;
58446;SDS011;44240;51.840;7.258;2022-08-19T10:01:58;10.93;;;9.77;;
58446;SDS011;44240;51.840;7.258;2022-08-19T10:04:24;11.15;;;9.80;;
58446;SDS011;44240;51.840;7.258;2022-08-19T10:07:10;13.95;;;10.27;;
58446;SDS011;44240;51.840;7.258;2022-08-19T10:09:35;11.38;;;9.38;;
58446;SDS011;44240;51.840;7.258;2022-08-19T10:12:02;12.45;;;9.70;;
58446;SDS011;44240;51.840;7.258;2022-08-19T10:14:29;15.80;;;10.45;;
58446;SDS011;44240;51.840;7.258;2022-08-19T10:16:55;13.45;;;11.15;;
58446;SDS011;44240;51.840;7.258;2022-08-19T10:19:21;12.20;;;11.00;;
58446;SDS011;44240;51.840;7.258;2022-08-19T10:21:47;15.32;;;11.35;;
58446;SDS011;44240;51.840;7.258;2022-08-19T10:24:12;13.90;;;12.15;;
58446;SDS011;44240;51.840;7.258;2022-08-19T10:26:39;17.38;;;11.73;;
58446;SDS011;44240;51.840;7.258;2022-08-19T10:29:09;15.95;;;11.35;;
58446;SDS011;44240;51.840;7.258;2022-08-19T10:31:36;18.10;;;13.68;;
58446;SDS011;44240;51.840;7.258;2022-08-19T10:34:02;16.65;;;13.77;;
58446;SDS011;44240;51.840;7.258;2022-08-19T10:36:32;15.88;;;12.07;;
58446;SDS011;44240;51.840;7.258;2022-08-19T10:39:02;14.77;;;12.68;;
58446;SDS011;44240;51.840;7.258;2022-08-19T10:41:32;11.60;;;10.35;;
58446;SDS011;44240;51.840;7.258;2022-08-19T10:44:03;17.27;;;13.43;;
58446;SDS011;44240;51.840;7.258;2022-08-19T10:46:31;16.65;;;12.80;;
58446;SDS011;44240;51.840;7.258;2022-08-19T10:48:59;14.50;;;10.73;;
58446;SDS011;44240;51.840;7.258;2022-08-19T10:51:26;11.15;;;9.23;;
58446;SDS011;44240;51.840;7.258;2022-08-19T10:54:10;12.85;;;9.15;;
58446;SDS011;44240;51.840;7.258;2022-08-19T10:56:36;12.77;;;10.38;;
58446;SDS011;44240;51.840;7.258;2022-08-19T10:59:18;11.77;;;10.27;;
58446;SDS011;44240;51.840;7.258;2022-08-19T11:01:45;13.00;;;10.48;;
58446;SDS011;44240;51.840;7.258;2022-08-19T11:04:12;16.00;;;12.75;;
58446;SDS011;44240;51.840;7.258;2022-08-19T11:06:38;14.77;;;11.73;;
58446;SDS011;44240;51.840;7.258;2022-08-19T11:09:05;12.18;;;10.70;;
58446;SDS011;44240;51.840;7.258;2022-08-19T11:11:31;12.65;;;10.15;;
58446;SDS011;44240;51.840;7.258;2022-08-19T11:14:15;14.82;;;10.98;;
58446;SDS011;44240;51.840;7.258;2022-08-19T11:16:49;11.18;;;9.68;;
58446;SDS011;44240;51.840;7.258;2022-08-19T11:19:16;12.00;;;10.32;;
58446;SDS011;44240;51.840;7.258;2022-08-19T11:21:44;10.27;;;9.25;;
58446;SDS011;44240;51.840;7.258;2022-08-19T11:24:16;12.30;;;9.25;;
58446;SDS011;44240;51.840;7.258;2022-08-19T11:26:44;10.25;;;9.25;;
58446;SDS011;44240;51.840;7.258;2022-08-19T11:29:11;13.07;;;9.93;;
58446;SDS011;44240;51.840;7.258;2022-08-19T11:31:38;13.27;;;9.43;;
58446;SDS011;44240;51.840;7.258;2022-08-19T11:34:07;10.50;;;9.02;;
58446;SDS011;44240;51.840;7.258;2022-08-19T11:36:36;10.55;;;8.73;;
58446;SDS011;44240;51.840;7.258;2022-08-19T11:39:04;11.75;;;9.60;;
58446;SDS011;44240;51.840;7.258;2022-08-19T11:41:31;11.27;;;9.15;;
58446;SDS011;44240;51.840;7.258;2022-08-19T11:43:57;11.15;;;9.05;;
58446;SDS011;44240;51.840;7.258;2022-08-19T11:46:23;12.02;;;9.88;;
58446;SDS011;44240;51.840;7.258;2022-08-19T11:48:50;10.15;;;8.50;;
58446;SDS011;44240;51.840;7.258;2022-08-19T11:51:17;8.57;;;7.28;;
58446;SDS011;44240;51.840;7.258;2022-08-19T11:53:45;8.25;;;6.60;;
58446;SDS011;44240;51.840;7.258;2022-08-19T11:56:11;8.38;;;6.47;;
58446;SDS011;44240;51.840;7.258;2022-08-19T11:58:37;9.45;;;6.80;;
58446;SDS011;44240;51.840;7.258;2022-08-19T12:01:07;9.60;;;6.70;;
58446;SDS011;44240;51.840;7.258;2022-08-19T12:03:33;10.73;;;8.35;;
58446;SDS011;44240;51.840;7.258;2022-08-19T12:06:03;14.95;;;10.10;;
58446;SDS011;44240;51.840;7.258;2022-08-19T12:08:32;10.93;;;9.50;;
58446;SDS011;44240;51.840;7.258;2022-08-19T12:10:58;12.68;;;9.02;;
58446;SDS011;44240;51.840;7.258;2022-08-19T12:13:26;9.88;;;8.82;;
58446;SDS011;44240;51.840;7.258;2022-08-19T12:15:52;10.35;;;8.40;;
58446;SDS011;44240;51.840;7.258;2022-08-19T12:18:18;12.15;;;9.68;;
58446;SDS011;44240;51.840;7.258;2022-08-19T12:20:45;10.80;;;8.80;;
58446;SDS011;44240;51.840;7.258;2022-08-19T12:23:11;7.65;;;6.90;;
58446;SDS011;44240;51.840;7.258;2022-08-19T12:25:37;12.75;;;8.55;;
58446;SDS011;44240;51.840;7.258;2022-08-19T12:28:12;9.32;;;8.23;;
58446;SDS011;44240;51.840;7.258;2022-08-19T12:30:38;13.35;;;9.93;;
58446;SDS011;44240;51.840;7.258;2022-08-19T12:33:03;14.07;;;8.52;;
58446;SDS011;44240;51.840;7.258;2022-08-19T12:35:29;11.93;;;8.80;;
58446;SDS011;44240;51.840;7.258;2022-08-19T12:37:55;13.57;;;10.23;;
58446;SDS011;44240;51.840;7.258;2022-08-19T12:40:21;11.55;;;8.38;;
58446;SDS011;44240;51.840;7.258;2022-08-19T12:42:46;11.00;;;9.88;;
58446;SDS011;44240;51.840;7.258;2022-08-19T12:45:14;9.32;;;7.25;;
58446;SDS011;44240;51.840;7.258;2022-08-19T12:47:39;10.25;;;8.10;;
58446;SDS011;44240;51.840;7.258;2022-08-19T12:50:05;8.70;;;7.57;;
58446;SDS011;44240;51.840;7.258;2022-08-19T12:52:33;8.82;;;7.10;;
58446;SDS011;44240;51.840;7.258;2022-08-19T12:55:02;9.00;;;7.55;;
58446;SDS011;44240;51.840;7.258;2022-08-19T12:57:29;14.57;;;9.65;;
58446;SDS011;44240;51.840;7.258;2022-08-19T12:59:58;10.48;;;8.52;;
58446;SDS011;44240;51.840;7.258;2022-08-19T13:02:25;13.18;;;8.65;;
58446;SDS011;44240;51.840;7.258;2022-08-19T13:04:51;9.25;;;8.15;;
58446;SDS011;44240;51.840;7.258;2022-08-19T13:07:16;8.77;;;7.57;;
58446;SDS011;44240;51.840;7.258;2022-08-19T13:09:42;9.57;;;8.18;;
58446;SDS011;44240;51.840;7.258;2022-08-19T13:12:07;10.50;;;7.13;;
58446;SDS011;44240;51.840;7.258;2022-08-19T13:14:37;10.63;;;7.13;;
58446;SDS011;44240;51.840;7.258;2022-08-19T13:17:05;11.63;;;8.25;;
58446;SDS011;44240;51.840;7.258;2022-08-19T13:19:31;8.20;;;7.40;;
58446;SDS011;44240;51.840;7.258;2022-08-19T13:21:57;9.13;;;7.93;;
58446;SDS011;44240;51.840;7.258;2022-08-19T13:24:23;7.75;;;6.68;;
58446;SDS011;44240;51.840;7.258;2022-08-19T13:26:49;8.23;;;7.43;;
58446;SDS011;44240;51.840;7.258;2022-08-19T13:29:14;8.48;;;6.72;;
58446;SDS011;44240;51.840;7.258;2022-08-19T13:31:58;7.33;;;6.17;;
58446;SDS011;44240;51.840;7.258;2022-08-19T13:34:42;8.38;;;6.47;;
58446;SDS011;44240;51.840;7.258;2022-08-19T13:37:08;6.50;;;5.20;;
58446;SDS011;44240;51.840;7.258;2022-08-19T13:39:34;8.15;;;5.40;;
58446;SDS011;44240;51.840;7.258;2022-08-19T13:42:00;6.97;;;5.25;;
58446;SDS011;44240;51.840;7.258;2022-08-19T13:44:27;7.03;;;4.63;;
58446;SDS011;44240;51.840;7.258;2022-08-19T13:46:54;5.70;;;4.38;;
58446;SDS011;44240;51.840;7.258;2022-08-19T13:49:25;7.50;;;5.25;;
58446;SDS011;44240;51.840;7.258;2022-08-19T13:51:55;6.70;;;4.93;;
58446;SDS011;44240;51.840;7.258;2022-08-19T13:54:21;7.82;;;5.07;;
58446;SDS011;44240;51.840;7.258;2022-08-19T13:56:47;5.50;;;5.00;;
58446;SDS011;44240;51.840;7.258;2022-08-19T13:59:12;5.40;;;4.90;;
58446;SDS011;44240;51.840;7.258;2022-08-19T14:01:38;5.38;;;4.50;;
58446;SDS011;44240;51.840;7.258;2022-08-19T14:04:05;5.85;;;4.35;;
58446;SDS011;44240;51.840;7.258;2022-08-19T14:06:31;5.00;;;4.55;;
58446;SDS011;44240;51.840;7.258;2022-08-19T14:08:57;4.72;;;3.58;;
58446;SDS011;44240;51.840;7.258;2022-08-19T14:11:23;4.85;;;4.40;;
58446;SDS011;44240;51.840;7.258;2022-08-19T14:13:49;7.45;;;4.20;;
58446;SDS011;44240;51.840;7.258;2022-08-19T14:16:15;8.25;;;4.43;;
58446;SDS011;44240;51.840;7.258;2022-08-19T14:18:41;5.30;;;4.80;;
58446;SDS011;44240;51.840;7.258;2022-08-19T14:21:07;6.10;;;4.50;;
58446;SDS011;44240;51.840;7.258;2022-08-19T14:23:38;4.70;;;3.95;;
58446;SDS011;44240;51.840;7.258;2022-08-19T14:26:06;4.53;;;4.05;;
58446;SDS011;44240;51.840;7.258;2022-08-19T14:28:33;4.35;;;3.95;;
58446;SDS011;44240;51.840;7.258;2022-08-19T14:30:58;6.78;;;4.63;;
58446;SDS011;44240;51.840;7.258;2022-08-19T14:33:24;4.57;;;3.70;;
58446;SDS011;44240;51.840;7.258;2022-08-19T14:35:49;4.50;;;4.10;;
58446;SDS011;44240;51.840;7.258;2022-08-19T14:38:16;6.03;;;3.90;;
58446;SDS011;44240;51.840;7.258;2022-08-19T14:40:43;5.53;;;4.07;;
58446;SDS011;44240;51.840;7.258;2022-08-19T14:43:08;4.53;;;4.13;;
58446;SDS011;44240;51.840;7.258;2022-08-19T14:45:35;4.50;;;3.97;;